Time;durP1;ratioP1;P1;durP2;ratioP2;P2;SDS_P1;SDS_P2;PMS_P1;PMS_P2;Temp;Humidity;BMP_temperature;BMP_pressure;BME280_temperature;BME280_humidity;BME280_pressure;Samples;Min_cycle;Max_cycle;Signal;HPM_P1;HPM_P2
2023/08/27 00:00:32;;;;;;;6.20;2.15;;;;;;;;;;4934664;29;20044;-77
2023/08/27 00:03:05;;;;;;;6.03;1.52;;;;;;;;;;4936330;29;20055;-78
2023/08/27 00:05:42;;;;;;;6.47;2.72;;;;;;;;;;4945926;29;20078;-80
2023/08/27 00:08:13;;;;;;;7.45;1.85;;;;;;;;;;4955789;29;20047;-78
2023/08/27 00:10:44;;;;;;;5.97;1.70;;;;;;;;;;4937329;29;20067;-78
2023/08/27 00:13:15;;;;;;;;;;;;;;;;;;4938256;29;20058;-77
2023/08/27 00:15:46;;;;;;;6.32;2.38;;;;;;;;;;4955344;29;19926;-80
2023/08/27 00:18:18;;;;;;;5.40;1.92;;;;;;;;;;4939246;29;20062;-77
2023/08/27 00:20:50;;;;;;;6.88;2.30;;;;;;;;;;4955789;29;20054;-77
2023/08/27 00:23:21;;;;;;;5.65;2.78;;;;;;;;;;4938498;29;20051;-79
2023/08/27 00:25:51;;;;;;;10.82;2.00;;;;;;;;;;4937534;29;20074;-77
2023/08/27 00:28:22;;;;;;;3.05;1.55;;;;;;;;;;4955324;29;20054;-82
2023/08/27 00:31:04;;;;;;;3.20;1.40;;;;;;;;;;4922192;29;20047;-79
2023/08/27 00:33:35;;;;;;;6.18;1.63;;;;;;;;;;4922305;29;20169;-79
2023/08/27 00:36:07;;;;;;;2.58;0.93;;;;;;;;;;4937020;29;20055;-78
2023/08/27 00:38:38;;;;;;;;;;;;;;;;;;4937570;29;20078;-78
2023/08/27 00:41:08;;;;;;;3.03;1.15;;;;;;;;;;4937264;29;19926;-78
2023/08/27 00:43:43;;;;;;;5.05;1.80;;;;;;;;;;4937232;29;20411;-77
2023/08/27 00:46:15;;;;;;;3.70;1.13;;;;;;;;;;4954190;28;20070;-78
2023/08/27 00:48:45;;;;;;;4.22;1.52;;;;;;;;;;4955114;29;20047;-80
2023/08/27 00:51:16;;;;;;;5.57;1.90;;;;;;;;;;4936995;29;20426;-78
2023/08/27 00:53:48;;;;;;;5.28;1.98;;;;;;;;;;4954931;29;20044;-78
2023/08/27 00:56:23;;;;;;;5.90;1.60;;;;;;;;;;4936927;29;20055;-78
2023/08/27 00:58:54;;;;;;;2.30;0.70;;;;;;;;;;4954865;29;20490;-79
2023/08/27 01:01:30;;;;;;;2.35;0.90;;;;;;;;;;4954685;29;20047;-79
2023/08/27 01:04:01;;;;;;;3.75;1.50;;;;;;;;;;4937144;29;20062;-78
2023/08/27 01:06:33;;;;;;;3.80;1.05;;;;;;;;;;4921691;29;20058;-79
2023/08/27 01:09:22;;;;;;;8.85;1.65;;;;;;;;;;4937071;29;20502;-77
2023/08/27 01:12:09;;;;;;;3.53;1.50;;;;;;;;;;4937865;29;20078;-79
2023/08/27 01:14:46;;;;;;;3.72;1.10;;;;;;;;;;4937702;29;20399;-77
2023/08/27 01:17:25;;;;;;;2.17;0.93;;;;;;;;;;4945564;29;20481;-78
2023/08/27 01:19:57;;;;;;;3.28;1.42;;;;;;;;;;4974940;29;20051;-78
2023/08/27 01:22:29;;;;;;;3.75;0.98;;;;;;;;;;4969600;29;20075;-79
2023/08/27 01:25:02;;;;;;;3.15;1.02;;;;;;;;;;4936576;29;20506;-78
2023/08/27 01:27:43;;;;;;;4.25;0.88;;;;;;;;;;4936342;29;20058;-79
2023/08/27 01:30:27;;;;;;;;;;;;;;;;;;4937179;29;20059;-81
2023/08/27 01:33:04;;;;;;;3.67;1.35;;;;;;;;;;4936654;29;19923;-78
2023/08/27 01:35:41;;;;;;;3.30;1.17;;;;;;;;;;4926140;29;20393;-79
2023/08/27 01:38:12;;;;;;;5.65;2.08;;;;;;;;;;4931112;29;20406;-78
2023/08/27 01:40:43;;;;;;;4.05;1.40;;;;;;;;;;4946176;29;20054;-77
2023/08/27 01:43:14;;;;;;;3.17;1.27;;;;;;;;;;4925171;29;20054;-77
2023/08/27 01:45:47;;;;;;;3.03;1.00;;;;;;;;;;4935592;29;20055;-76
2023/08/27 01:48:22;;;;;;;2.63;1.13;;;;;;;;;;4954012;29;20054;-78
2023/08/27 01:50:53;;;;;;;4.32;1.50;;;;;;;;;;4935792;29;20051;-79
2023/08/27 01:53:25;;;;;;;3.33;1.10;;;;;;;;;;4936017;29;20051;-79
2023/08/27 01:55:58;;;;;;;2.10;0.82;;;;;;;;;;4954185;29;20066;-79
2023/08/27 01:58:29;;;;;;;;;;;;;;;;;;4920858;29;20047;-79
2023/08/27 02:00:59;;;;;;;7.82;1.17;;;;;;;;;;4935720;29;19922;-79
2023/08/27 02:03:34;;;;;;;6.18;1.27;;;;;;;;;;4937702;29;20081;-79
2023/08/27 02:06:07;;;;;;;4.57;1.13;;;;;;;;;;4953689;29;20052;-79
2023/08/27 02:08:40;;;;;;;5.63;1.10;;;;;;;;;;4920960;29;20051;-78
2023/08/27 02:11:12;;;;;;;3.47;1.27;;;;;;;;;;4937381;29;20054;-78
2023/08/27 02:13:44;;;;;;;;;;;;;;;;;;4936064;29;20055;-79
2023/08/27 02:16:15;;;;;;;3.42;1.13;;;;;;;;;;4935541;29;19922;-78
2023/08/27 02:18:47;;;;;;;3.55;1.10;;;;;;;;;;4936624;29;20056;-80
2023/08/27 02:21:18;;;;;;;6.28;0.98;;;;;;;;;;4920949;29;20058;-79
2023/08/27 02:23:48;;;;;;;3.22;0.90;;;;;;;;;;4920601;29;20059;-79
2023/08/27 02:26:20;;;;;;;2.30;0.80;;;;;;;;;;4953408;29;20383;-80
2023/08/27 02:28:54;;;;;;;4.10;1.35;;;;;;;;;;4936387;29;20047;-80
2023/08/27 02:31:25;;;;;;;2.72;0.98;;;;;;;;;;4919971;29;20058;-79
2023/08/27 02:33:58;;;;;;;3.55;1.23;;;;;;;;;;4953494;29;20058;-78
2023/08/27 02:36:30;;;;;;;2.88;1.05;;;;;;;;;;4916967;29;20055;-78
2023/08/27 02:39:05;;;;;;;4.93;1.17;;;;;;;;;;4916592;29;20055;-78
2023/08/27 02:41:37;;;;;;;3.08;1.48;;;;;;;;;;4933919;29;20054;-79
2023/08/27 02:44:10;;;;;;;2.45;1.00;;;;;;;;;;4945951;29;20048;-78
2023/08/27 02:46:40;;;;;;;2.25;0.82;;;;;;;;;;4953316;29;20058;-77
2023/08/27 02:49:12;;;;;;;2.55;1.10;;;;;;;;;;4952903;29;20051;-77
2023/08/27 02:51:46;;;;;;;2.63;1.10;;;;;;;;;;4953399;29;20054;-78
2023/08/27 02:54:18;;;;;;;5.03;1.58;;;;;;;;;;4935475;29;20414;-77
2023/08/27 02:56:53;;;;;;;5.82;1.52;;;;;;;;;;4935113;29;20070;-78
2023/08/27 02:59:24;;;;;;;4.47;1.30;;;;;;;;;;4934860;29;20051;-77
2023/08/27 03:01:55;;;;;;;4.22;1.40;;;;;;;;;;4953518;29;20043;-76
2023/08/27 03:04:26;;;;;;;3.40;1.13;;;;;;;;;;4952196;29;20494;-79
2023/08/27 03:06:58;;;;;;;2.60;1.10;;;;;;;;;;4916445;29;20522;-77
2023/08/27 03:09:33;;;;;;;3.38;1.17;;;;;;;;;;4915946;29;20052;-79
2023/08/27 03:12:03;;;;;;;5.93;1.60;;;;;;;;;;4937245;29;20055;-79
2023/08/27 03:14:35;;;;;;;3.97;1.33;;;;;;;;;;4920854;29;20408;-77
2023/08/27 03:17:07;;;;;;;4.28;1.70;;;;;;;;;;4919452;29;20055;-77
2023/08/27 03:19:43;;;;;;;5.78;1.67;;;;;;;;;;4919021;29;20051;-80
2023/08/27 03:22:14;;;;;;;6.05;1.98;;;;;;;;;;4937377;29;20047;-78
2023/08/27 03:24:46;;;;;;;4.32;1.15;;;;;;;;;;4936958;29;20150;-79
2023/08/27 03:27:17;;;;;;;4.05;1.52;;;;;;;;;;4937269;29;20051;-79
2023/08/27 03:29:48;;;;;;;5.65;1.52;;;;;;;;;;4936921;29;20546;-78
2023/08/27 03:32:18;;;;;;;6.70;1.42;;;;;;;;;;4918644;29;20051;-78
2023/08/27 03:34:49;;;;;;;9.65;1.48;;;;;;;;;;4936951;29;20044;-78
2023/08/27 03:37:21;;;;;;;3.72;1.35;;;;;;;;;;4937406;29;20048;-79
2023/08/27 03:39:52;;;;;;;5.00;1.40;;;;;;;;;;4919317;29;20048;-78
2023/08/27 03:42:24;;;;;;;6.40;1.33;;;;;;;;;;4936883;29;20052;-78
2023/08/27 03:44:54;;;;;;;4.45;1.50;;;;;;;;;;4919097;29;20047;-79
2023/08/27 03:47:26;;;;;;;6.78;1.45;;;;;;;;;;4918535;29;20047;-78
2023/08/27 03:49:59;;;;;;;10.57;1.75;;;;;;;;;;4919503;29;20051;-78
2023/08/27 03:52:30;;;;;;;6.38;1.70;;;;;;;;;;4927988;29;20410;-78
2023/08/27 03:55:02;;;;;;;4.40;1.20;;;;;;;;;;4936810;29;20359;-78
2023/08/27 03:57:37;;;;;;;4.57;1.63;;;;;;;;;;4957102;29;20410;-79
2023/08/27 04:00:11;;;;;;;3.83;1.10;;;;;;;;;;4956544;29;20055;-79
2023/08/27 04:02:46;;;;;;;5.28;1.30;;;;;;;;;;4944212;29;20509;-80
2023/08/27 04:05:16;;;;;;;3.22;1.50;;;;;;;;;;4938801;29;20052;-79
2023/08/27 04:07:48;;;;;;;3.55;1.45;;;;;;;;;;4939013;29;20051;-77
2023/08/27 04:10:19;;;;;;;4.75;1.48;;;;;;;;;;4938520;29;20051;-77
2023/08/27 04:12:54;;;;;;;4.63;1.63;;;;;;;;;;4938714;29;20062;-79
2023/08/27 04:15:27;;;;;;;5.45;1.40;;;;;;;;;;4938906;29;20047;-78
2023/08/27 04:18:01;;;;;;;9.25;1.50;;;;;;;;;;4938672;29;20168;-77
2023/08/27 04:20:31;;;;;;;9.95;1.48;;;;;;;;;;4938620;28;20051;-79
2023/08/27 04:23:04;;;;;;;4.38;1.45;;;;;;;;;;4938651;29;20047;-77
2023/08/27 04:25:35;;;;;;;5.03;1.80;;;;;;;;;;4922672;29;20075;-78
2023/08/27 04:28:07;;;;;;;4.03;1.33;;;;;;;;;;4956458;29;20047;-78
2023/08/27 04:30:39;;;;;;;4.32;1.60;;;;;;;;;;4939637;29;20043;-77
2023/08/27 04:33:12;;;;;;;6.22;1.80;;;;;;;;;;4938412;29;20054;-78
2023/08/27 04:35:44;;;;;;;4.53;1.85;;;;;;;;;;4922826;29;20051;-77
2023/08/27 04:38:14;;;;;;;3.40;1.50;;;;;;;;;;4938931;29;20054;-77
2023/08/27 04:40:49;;;;;;;3.20;1.40;;;;;;;;;;4937243;29;20047;-78
2023/08/27 04:43:24;;;;;;;5.43;1.50;;;;;;;;;;4938249;29;20055;-76
2023/08/27 04:45:56;;;;;;;7.28;1.45;;;;;;;;;;4938076;29;20118;-77
2023/08/27 04:48:29;;;;;;;5.03;2.20;;;;;;;;;;4955764;29;20050;-79
2023/08/27 04:51:01;;;;;;;4.70;1.67;;;;;;;;;;4937590;29;20051;-76
2023/08/27 04:53:33;;;;;;;4.50;1.60;;;;;;;;;;4922772;29;20043;-78
2023/08/27 04:56:03;;;;;;;5.80;1.63;;;;;;;;;;4938752;29;20051;-78
2023/08/27 04:58:35;;;;;;;3.75;1.48;;;;;;;;;;4955935;29;20049;-79
2023/08/27 05:01:06;;;;;;;4.70;1.88;;;;;;;;;;4955762;29;20058;-77
2023/08/27 05:03:42;;;;;;;4.65;1.55;;;;;;;;;;4937776;29;20047;-78
2023/08/27 05:06:12;;;;;;;6.03;1.95;;;;;;;;;;4937632;29;20063;-79
2023/08/27 05:08:43;;;;;;;5.90;2.15;;;;;;;;;;4937573;29;20394;-78
2023/08/27 05:11:17;;;;;;;5.45;2.15;;;;;;;;;;4923501;29;20062;-78
2023/08/27 05:13:49;;;;;;;9.00;2.05;;;;;;;;;;4938028;29;20403;-77
2023/08/27 05:16:22;;;;;;;8.35;2.67;;;;;;;;;;4943827;29;20055;-77
2023/08/27 05:18:53;;;;;;;4.65;1.67;;;;;;;;;;4960276;29;20051;-77
2023/08/27 05:21:24;;;;;;;5.50;1.95;;;;;;;;;;4975456;29;20047;-78
2023/08/27 05:23:59;;;;;;;5.60;2.28;;;;;;;;;;4937830;29;20058;-78
2023/08/27 05:26:33;;;;;;;5.97;2.28;;;;;;;;;;4938290;29;20383;-78
2023/08/27 05:29:04;;;;;;;9.50;2.58;;;;;;;;;;4918539;29;20525;-77
2023/08/27 05:31:36;;;;;;;5.55;2.25;;;;;;;;;;4936277;29;20344;-78
2023/08/27 05:34:08;;;;;;;4.80;1.92;;;;;;;;;;4918008;29;20047;-78
2023/08/27 05:36:38;;;;;;;10.40;2.08;;;;;;;;;;4935794;29;20060;-78
2023/08/27 05:39:09;;;;;;;11.18;2.63;;;;;;;;;;4936617;29;20047;-78
2023/08/27 05:41:41;;;;;;;7.40;2.38;;;;;;;;;;4917629;29;20059;-77
2023/08/27 05:44:14;;;;;;;7.38;2.45;;;;;;;;;;4935698;29;20051;-77
2023/08/27 05:46:45;;;;;;;6.05;2.20;;;;;;;;;;4919931;29;20048;-76
2023/08/27 05:49:18;;;;;;;7.53;2.60;;;;;;;;;;4918467;29;20056;-79
2023/08/27 05:51:50;;;;;;;6.05;2.45;;;;;;;;;;4918090;29;20071;-78
2023/08/27 05:54:20;;;;;;;8.05;2.70;;;;;;;;;;4936232;29;20498;-78
2023/08/27 05:56:51;;;;;;;7.35;2.92;;;;;;;;;;4918855;29;20079;-78
2023/08/27 05:59:23;;;;;;;8.75;3.22;;;;;;;;;;4918560;29;20056;-79
2023/08/27 06:01:53;;;;;;;8.13;3.22;;;;;;;;;;4917975;29;20059;-78
2023/08/27 06:04:26;;;;;;;8.55;3.05;;;;;;;;;;4917988;29;20055;-79
2023/08/27 06:06:59;;;;;;;10.88;3.25;;;;;;;;;;4918914;29;20055;-79
2023/08/27 06:09:30;;;;;;;7.22;2.58;;;;;;;;;;4918795;29;20464;-78
2023/08/27 06:12:02;;;;;;;7.90;3.25;;;;;;;;;;4917803;29;20506;-79
2023/08/27 06:14:36;;;;;;;9.93;3.50;;;;;;;;;;4917783;29;20052;-79
2023/08/27 06:17:06;;;;;;;7.95;2.70;;;;;;;;;;4935710;29;20498;-78
2023/08/27 06:19:37;;;;;;;8.70;3.22;;;;;;;;;;4917775;29;20051;-78
2023/08/27 06:22:18;;;;;;;10.30;3.38;;;;;;;;;;4918445;29;20052;-80
2023/08/27 06:24:50;;;;;;;7.15;3.03;;;;;;;;;;4917225;29;20510;-78
2023/08/27 06:27:20;;;;;;;12.32;3.28;;;;;;;;;;4917771;29;20055;-79
2023/08/27 06:29:50;;;;;;;7.32;2.70;;;;;;;;;;4935961;29;20371;-79
2023/08/27 06:32:22;;;;;;;7.47;3.15;;;;;;;;;;4935274;29;20039;-78
2023/08/27 06:34:55;;;;;;;7.68;3.05;;;;;;;;;;4917836;29;20078;-79
2023/08/27 06:37:28;;;;;;;8.63;3.08;;;;;;;;;;4917899;29;20055;-78
2023/08/27 06:39:58;;;;;;;7.95;3.00;;;;;;;;;;4917636;29;20443;-78
2023/08/27 06:42:30;;;;;;;10.48;3.55;;;;;;;;;;4917202;29;20067;-79
2023/08/27 06:45:04;;;;;;;;;;;;;;;;;;4919361;29;20498;-76
2023/08/27 06:47:34;;;;;;;9.05;3.05;;;;;;;;;;4939343;29;19923;-80
2023/08/27 06:50:06;;;;;;;10.23;3.30;;;;;;;;;;4921988;29;20058;-79
2023/08/27 06:52:39;;;;;;;7.78;3.22;;;;;;;;;;4939100;29;20043;-77
2023/08/27 06:55:11;;;;;;;8.38;3.10;;;;;;;;;;4939349;29;20039;-78
2023/08/27 06:57:41;;;;;;;9.65;3.75;;;;;;;;;;4938828;29;20456;-78
2023/08/27 07:00:14;;;;;;;8.27;3.45;;;;;;;;;;4921633;29;20052;-78
2023/08/27 07:02:49;;;;;;;9.65;3.53;;;;;;;;;;4939090;29;20381;-78
2023/08/27 07:05:25;;;;;;;7.72;3.17;;;;;;;;;;4902977;29;20063;-78
2023/08/27 07:07:56;;;;;;;9.43;3.20;;;;;;;;;;4917854;29;20052;-77
2023/08/27 07:10:28;;;;;;;10.23;3.50;;;;;;;;;;4902997;29;20056;-78
2023/08/27 07:13:01;;;;;;;10.30;3.90;;;;;;;;;;4917635;29;20060;-79
2023/08/27 07:15:34;;;;;;;8.50;3.50;;;;;;;;;;4901961;29;20072;-78
2023/08/27 07:18:05;;;;;;;6.50;3.45;;;;;;;;;;4919430;29;20051;-78
2023/08/27 07:20:37;;;;;;;12.15;3.42;;;;;;;;;;4917982;29;20048;-78
2023/08/27 07:23:08;;;;;;;8.07;3.33;;;;;;;;;;4916578;29;20423;-80
2023/08/27 07:25:39;;;;;;;7.07;2.97;;;;;;;;;;4901364;29;20052;-78
2023/08/27 07:28:10;;;;;;;8.88;3.83;;;;;;;;;;4917314;29;20048;-80
2023/08/27 07:30:41;;;;;;;8.85;3.60;;;;;;;;;;4917347;29;20052;-78
2023/08/27 07:33:14;;;;;;;10.88;4.10;;;;;;;;;;4917444;29;20056;-78
2023/08/27 07:35:47;;;;;;;12.55;3.72;;;;;;;;;;4917609;29;20056;-79
2023/08/27 07:38:17;;;;;;;8.18;4.00;;;;;;;;;;4919350;29;20051;-77
2023/08/27 07:40:47;;;;;;;8.85;3.28;;;;;;;;;;4919119;29;20071;-77
2023/08/27 07:43:18;;;;;;;12.48;3.95;;;;;;;;;;4901018;29;20052;-77
2023/08/27 07:45:50;;;;;;;10.10;3.42;;;;;;;;;;4916956;29;20059;-78
2023/08/27 07:48:20;;;;;;;8.82;3.55;;;;;;;;;;4901464;29;20076;-78
2023/08/27 07:50:54;;;;;;;10.50;3.85;;;;;;;;;;4917224;29;20056;-78
2023/08/27 07:53:25;;;;;;;10.98;4.60;;;;;;;;;;4916787;29;20551;-78
2023/08/27 07:55:55;;;;;;;7.82;3.15;;;;;;;;;;4900831;29;20078;-78
2023/08/27 07:58:29;;;;;;;9.10;3.95;;;;;;;;;;4917201;29;20048;-79
2023/08/27 08:01:04;;;;;;;9.15;3.30;;;;;;;;;;4917033;29;20407;-79
2023/08/27 08:03:39;;;;;;;14.82;3.53;;;;;;;;;;4916773;29;20059;-78
2023/08/27 08:06:09;;;;;;;8.93;3.83;;;;;;;;;;4911873;29;20514;-77
2023/08/27 08:08:40;;;;;;;10.50;3.58;;;;;;;;;;4904162;29;20380;-78
2023/08/27 08:11:12;;;;;;;7.20;3.30;;;;;;;;;;4937581;29;20044;-78
2023/08/27 08:13:45;;;;;;;9.20;3.58;;;;;;;;;;4937299;29;20048;-78
2023/08/27 08:16:16;;;;;;;;;;;;;;;;;;4904730;29;20044;-78
2023/08/27 08:18:45;;;;;;;7.78;3.25;;;;;;;;;;4920618;29;19930;-77
2023/08/27 08:21:19;;;;;;;11.20;3.05;;;;;;;;;;4919384;29;20459;-78
2023/08/27 08:23:51;;;;;;;7.75;3.30;;;;;;;;;;4937172;29;20071;-78
2023/08/27 08:26:23;;;;;;;8.32;3.33;;;;;;;;;;4937001;29;20054;-78
2023/08/27 08:28:55;;;;;;;6.38;3.25;;;;;;;;;;4937022;29;20036;-78
2023/08/27 08:31:25;;;;;;;8.50;3.33;;;;;;;;;;4937265;29;20043;-77
2023/08/27 08:33:57;;;;;;;15.77;3.67;;;;;;;;;;4920064;29;20056;-78
2023/08/27 08:36:30;;;;;;;13.98;3.78;;;;;;;;;;4937549;29;20058;-77
2023/08/27 08:39:02;;;;;;;12.13;3.80;;;;;;;;;;4937251;29;20495;-80
2023/08/27 08:41:37;;;;;;;9.57;3.17;;;;;;;;;;4937535;29;20446;-77
2023/08/27 08:44:43;;;;;;;8.20;3.47;;;;;;;;;;4920890;29;20052;-78
2023/08/27 08:47:18;;;;;;;6.95;2.72;;;;;;;;;;4937242;29;20175;-77
2023/08/27 08:49:54;;;;;;;9.13;3.53;;;;;;;;;;4937002;29;20483;-77
2023/08/27 08:52:28;;;;;;;13.65;3.83;;;;;;;;;;4937232;29;20054;-78
2023/08/27 08:55:01;;;;;;;9.43;3.80;;;;;;;;;;4945086;29;20036;-75
2023/08/27 08:57:43;;;;;;;10.65;3.25;;;;;;;;;;4953469;29;20044;-77
2023/08/27 09:00:14;;;;;;;8.60;3.50;;;;;;;;;;4948068;29;20047;-78
2023/08/27 09:02:46;;;;;;;7.20;3.25;;;;;;;;;;4919444;29;20048;-78
2023/08/27 09:05:21;;;;;;;9.77;3.42;;;;;;;;;;4920642;29;20047;-77
2023/08/27 09:07:53;;;;;;;8.80;4.13;;;;;;;;;;4935657;29;20411;-78
2023/08/27 09:10:26;;;;;;;8.30;3.33;;;;;;;;;;4936329;29;20040;-79
2023/08/27 09:13:01;;;;;;;8.73;3.47;;;;;;;;;;4936502;29;20051;-78
2023/08/27 09:15:33;;;;;;;8.90;3.45;;;;;;;;;;4936494;29;20405;-79
2023/08/27 09:18:04;;;;;;;6.90;3.58;;;;;;;;;;4936223;29;20056;-78
2023/08/27 09:20:36;;;;;;;8.27;4.00;;;;;;;;;;4919916;29;20051;-78
2023/08/27 09:23:09;;;;;;;8.48;3.40;;;;;;;;;;4919923;29;20383;-79
2023/08/27 09:25:41;;;;;;;13.65;3.20;;;;;;;;;;4936094;29;20044;-79
2023/08/27 09:28:14;;;;;;;7.82;3.30;;;;;;;;;;4936700;29;20054;-78
2023/08/27 09:30:46;;;;;;;9.02;3.70;;;;;;;;;;4936187;29;20044;-79
2023/08/27 09:33:16;;;;;;;8.70;3.33;;;;;;;;;;4935915;29;20134;-78
2023/08/27 09:35:48;;;;;;;9.13;3.25;;;;;;;;;;4936007;29;20055;-77
2023/08/27 09:38:22;;;;;;;7.80;3.65;;;;;;;;;;4918457;29;20068;-77
2023/08/27 09:40:54;;;;;;;;;;;;;;;;;;4936147;29;20047;-78
2023/08/27 09:43:27;;;;;;;8.18;3.38;;;;;;;;;;4919242;29;19923;-78
2023/08/27 09:45:58;;;;;;;8.73;3.30;;;;;;;;;;4919165;29;20063;-77
2023/08/27 09:48:28;;;;;;;7.03;2.70;;;;;;;;;;4935659;29;20074;-78
2023/08/27 09:51:05;;;;;;;6.45;3.15;;;;;;;;;;4929238;29;20515;-78
2023/08/27 09:53:36;;;;;;;9.68;3.10;;;;;;;;;;4937586;29;20054;-78
2023/08/27 09:56:07;;;;;;;7.32;3.20;;;;;;;;;;4920968;29;20048;-78
2023/08/27 09:58:40;;;;;;;9.02;2.92;;;;;;;;;;4932707;29;20052;-78
2023/08/27 10:01:37;;;;;;;8.63;2.78;;;;;;;;;;4944315;29;20063;-78
2023/08/27 10:04:10;;;;;;;14.15;2.97;;;;;;;;;;4920292;29;20043;-78
2023/08/27 10:06:43;;;;;;;7.75;3.05;;;;;;;;;;4935261;29;20056;-78
2023/08/27 10:09:14;;;;;;;7.35;2.90;;;;;;;;;;4935816;29;20048;-80
2023/08/27 10:11:47;;;;;;;11.43;3.08;;;;;;;;;;4935925;29;20050;-78
2023/08/27 10:14:19;;;;;;;9.93;3.47;;;;;;;;;;4935576;29;20054;-77
2023/08/27 10:16:49;;;;;;;11.38;3.42;;;;;;;;;;4936119;29;20059;-79
2023/08/27 10:19:24;;;;;;;12.40;3.80;;;;;;;;;;4937684;29;20060;-78
2023/08/27 10:21:57;;;;;;;11.13;4.05;;;;;;;;;;4921653;29;20483;-79
2023/08/27 10:24:30;;;;;;;9.30;3.75;;;;;;;;;;4939691;29;20110;-77
2023/08/27 10:27:04;;;;;;;9.50;3.17;;;;;;;;;;4939499;29;20110;-78
2023/08/27 10:29:37;;;;;;;8.82;3.03;;;;;;;;;;4939471;29;20043;-78
2023/08/27 10:32:13;;;;;;;7.30;3.20;;;;;;;;;;4939592;29;20495;-80
2023/08/27 10:34:44;;;;;;;6.35;2.95;;;;;;;;;;4921912;29;20043;-80
2023/08/27 10:37:15;;;;;;;6.47;3.17;;;;;;;;;;4922731;29;20046;-78
2023/08/27 10:39:49;;;;;;;10.35;3.22;;;;;;;;;;4939825;29;20062;-80
2023/08/27 10:42:33;;;;;;;10.73;3.30;;;;;;;;;;4921358;29;20052;-78
2023/08/27 10:45:27;;;;;;;8.65;3.03;;;;;;;;;;4922623;29;20054;-78
2023/08/27 10:48:22;;;;;;;8.30;3.10;;;;;;;;;;4937536;29;20399;-79
2023/08/27 10:51:14;;;;;;;9.38;3.08;;;;;;;;;;4950280;29;20060;-79
2023/08/27 10:53:51;;;;;;;10.50;3.47;;;;;;;;;;4940057;29;20054;-80
2023/08/27 10:56:27;;;;;;;9.40;2.97;;;;;;;;;;4958083;29;20051;-77
2023/08/27 10:59:01;;;;;;;8.70;3.15;;;;;;;;;;4939746;29;20056;-79
2023/08/27 11:01:59;;;;;;;9.70;3.35;;;;;;;;;;4939494;29;20055;-79
2023/08/27 11:04:39;;;;;;;8.38;3.03;;;;;;;;;;4924872;29;20044;-78
2023/08/27 11:07:15;;;;;;;9.98;3.10;;;;;;;;;;4936673;29;20075;-78
2023/08/27 11:09:52;;;;;;;5.32;2.45;;;;;;;;;;4935802;29;20048;-77
2023/08/27 11:12:35;;;;;;;9.80;2.95;;;;;;;;;;4936746;29;20375;-79
2023/08/27 11:15:15;;;;;;;9.05;3.42;;;;;;;;;;4928395;29;20403;-79
2023/08/27 11:17:47;;;;;;;9.80;3.10;;;;;;;;;;4929207;29;20044;-79
2023/08/27 11:20:25;;;;;;;7.75;3.58;;;;;;;;;;4926567;29;20054;-80
2023/08/27 11:22:58;;;;;;;;;;;;;;;;;;4920292;29;20048;-80
2023/08/27 11:25:30;;;;;;;7.47;3.13;;;;;;;;;;4924435;29;19929;-78
2023/08/27 11:28:00;;;;;;;8.32;2.90;;;;;;;;;;4922332;29;20055;-76
2023/08/27 11:30:35;;;;;;;10.70;3.58;;;;;;;;;;4932723;29;20043;-78
2023/08/27 11:33:07;;;;;;;11.88;4.57;;;;;;;;;;4936044;29;20499;-77
2023/08/27 11:35:37;;;;;;;10.45;5.10;;;;;;;;;;4934048;29;20055;-79
2023/08/27 11:38:11;;;;;;;10.25;4.43;;;;;;;;;;4934762;29;20047;-77
2023/08/27 11:40:48;;;;;;;12.25;5.22;;;;;;;;;;4937896;29;20043;-76
2023/08/27 11:43:26;;;;;;;11.70;5.50;;;;;;;;;;4936298;29;20043;-76
2023/08/27 11:45:56;;;;;;;11.00;3.72;;;;;;;;;;4937764;29;20044;-79
2023/08/27 11:48:28;;;;;;;10.85;5.05;;;;;;;;;;4931281;29;20491;-78
2023/08/27 11:50:59;;;;;;;8.82;4.30;;;;;;;;;;4918930;29;20044;-77
2023/08/27 11:53:33;;;;;;;8.15;3.17;;;;;;;;;;4918806;29;20048;-78
2023/08/27 11:56:06;;;;;;;7.25;2.97;;;;;;;;;;4918891;29;20056;-77
2023/08/27 11:58:36;;;;;;;8.10;2.35;;;;;;;;;;4918744;29;20055;-79
2023/08/27 12:01:11;;;;;;;6.45;2.58;;;;;;;;;;4921311;29;20529;-77
2023/08/27 12:03:43;;;;;;;5.55;2.42;;;;;;;;;;4937430;29;20113;-79
2023/08/27 12:06:25;;;;;;;6.32;2.55;;;;;;;;;;4934476;29;20051;-80
2023/08/27 12:08:59;;;;;;;6.18;2.55;;;;;;;;;;4934593;29;20529;-77
2023/08/27 12:11:31;;;;;;;6.38;2.47;;;;;;;;;;4930996;29;20522;-80
2023/08/27 12:14:07;;;;;;;6.25;3.13;;;;;;;;;;4926841;29;20040;-81
2023/08/27 12:16:38;;;;;;;7.93;2.90;;;;;;;;;;4931320;29;20055;-83
2023/08/27 12:19:13;;;;;;;7.18;3.22;;;;;;;;;;4924815;29;20060;-83
2023/08/27 12:21:57;;;;;;;4.55;1.88;;;;;;;;;;4934325;29;20047;-82
2023/08/27 12:24:42;;;;;;;7.07;3.50;;;;;;;;;;4935435;29;20423;-82
2023/08/27 12:27:19;;;;;;;5.55;2.50;;;;;;;;;;4941101;29;20040;-82
2023/08/27 12:29:53;;;;;;;5.40;2.45;;;;;;;;;;4943583;29;20044;-83
2023/08/27 12:32:33;;;;;;;5.80;2.83;;;;;;;;;;4947859;28;20034;-82
2023/08/27 12:35:08;;;;;;;6.50;2.67;;;;;;;;;;4947353;28;20036;-81
2023/08/27 12:37:39;;;;;;;7.68;2.28;;;;;;;;;;4925116;29;20041;-80
2023/08/27 12:40:13;;;;;;;6.40;3.15;;;;;;;;;;4908714;29;20054;-81
2023/08/27 12:42:45;;;;;;;14.88;7.53;;;;;;;;;;4927324;29;20047;-82
2023/08/27 12:45:19;;;;;;;12.57;5.82;;;;;;;;;;4924274;29;20048;-82
2023/08/27 12:47:52;;;;;;;8.02;3.85;;;;;;;;;;4926940;29;20049;-83
2023/08/27 12:50:24;;;;;;;7.72;3.30;;;;;;;;;;4925849;29;20415;-83
2023/08/27 12:52:55;;;;;;;13.55;5.30;;;;;;;;;;4917768;29;20059;-82
2023/08/27 12:55:29;;;;;;;14.70;8.50;;;;;;;;;;4916420;29;20052;-83
2023/08/27 12:58:01;;;;;;;8.00;1.88;;;;;;;;;;4917062;29;20123;-83
2023/08/27 13:00:33;;;;;;;6.78;2.90;;;;;;;;;;4918300;29;20399;-83
2023/08/27 13:03:06;;;;;;;5.85;3.55;;;;;;;;;;4916309;29;20055;-81
2023/08/27 13:05:40;;;;;;;6.10;2.25;;;;;;;;;;4917736;29;20059;-81
2023/08/27 13:08:13;;;;;;;13.27;6.32;;;;;;;;;;4901751;29;20060;-81
2023/08/27 13:10:43;;;;;;;6.40;1.90;;;;;;;;;;4915406;29;20135;-82
2023/08/27 13:13:15;;;;;;;;;;;;;;;;;;4915414;29;20044;-81
2023/08/27 13:15:51;;;;;;;3.35;1.50;;;;;;;;;;4916294;29;19949;-81
2023/08/27 13:18:22;;;;;;;3.72;1.35;;;;;;;;;;4917478;29;20063;-79
2023/08/27 13:20:55;;;;;;;8.35;2.25;;;;;;;;;;4917970;29;20048;-79
2023/08/27 13:23:25;;;;;;;3.75;1.70;;;;;;;;;;4917279;29;20033;-79
2023/08/27 13:25:57;;;;;;;2.97;1.40;;;;;;;;;;4913489;29;20519;-80
2023/08/27 13:28:27;;;;;;;5.18;1.85;;;;;;;;;;4916665;29;20052;-80
2023/08/27 13:30:59;;;;;;;6.55;1.90;;;;;;;;;;4917890;29;20040;-81
2023/08/27 13:33:30;;;;;;;3.97;1.48;;;;;;;;;;4915607;29;20048;-81
2023/08/27 13:36:03;;;;;;;3.95;1.65;;;;;;;;;;4917485;29;20044;-82
2023/08/27 13:38:34;;;;;;;3.67;1.80;;;;;;;;;;4916133;29;20048;-81
2023/08/27 13:41:07;;;;;;;3.70;1.50;;;;;;;;;;4917015;29;20395;-81
2023/08/27 13:43:37;;;;;;;5.00;1.67;;;;;;;;;;4915678;29;20059;-81
2023/08/27 13:46:08;;;;;;;5.40;1.80;;;;;;;;;;4916953;29;20380;-81
2023/08/27 13:48:39;;;;;;;5.22;2.05;;;;;;;;;;4915485;29;20056;-81
2023/08/27 13:51:09;;;;;;;3.78;1.50;;;;;;;;;;4917177;29;20040;-82
2023/08/27 13:53:41;;;;;;;4.85;2.03;;;;;;;;;;4916619;29;20396;-81
2023/08/27 13:56:13;;;;;;;4.80;1.60;;;;;;;;;;4917698;29;20445;-82
2023/08/27 13:58:43;;;;;;;9.68;1.67;;;;;;;;;;4916106;29;20502;-82
2023/08/27 14:01:14;;;;;;;4.97;2.03;;;;;;;;;;4917331;29;20048;-81
2023/08/27 14:03:45;;;;;;;6.70;1.67;;;;;;;;;;4916521;29;20051;-81
2023/08/27 14:06:19;;;;;;;6.40;1.63;;;;;;;;;;4915018;29;20048;-81
2023/08/27 14:08:52;;;;;;;3.60;1.38;;;;;;;;;;4916821;29;20048;-79
2023/08/27 14:11:22;;;;;;;5.80;1.73;;;;;;;;;;4914928;29;20056;-80
2023/08/27 14:13:53;;;;;;;7.25;1.95;;;;;;;;;;4916803;29;20060;-80
2023/08/27 14:16:25;;;;;;;4.63;1.77;;;;;;;;;;4914561;29;20503;-80
2023/08/27 14:18:55;;;;;;;3.25;1.70;;;;;;;;;;4916965;29;20051;-80
2023/08/27 14:21:29;;;;;;;3.53;1.42;;;;;;;;;;4915552;29;20052;-81
2023/08/27 14:23:59;;;;;;;5.13;1.80;;;;;;;;;;4916712;29;20120;-80
2023/08/27 14:26:35;;;;;;;6.55;1.98;;;;;;;;;;4914949;29;20055;-81
2023/08/27 14:29:06;;;;;;;2.60;1.10;;;;;;;;;;4916528;29;20048;-80
2023/08/27 14:31:40;;;;;;;5.13;1.77;;;;;;;;;;4899755;29;20056;-81
2023/08/27 14:34:10;;;;;;;6.38;1.75;;;;;;;;;;4916605;29;20040;-81
2023/08/27 14:36:44;;;;;;;4.18;1.85;;;;;;;;;;4916651;29;20158;-81
2023/08/27 14:39:16;;;;;;;4.20;1.92;;;;;;;;;;4916547;29;20495;-80
2023/08/27 14:41:50;;;;;;;5.30;1.73;;;;;;;;;;4916062;29;20498;-80
2023/08/27 14:44:21;;;;;;;6.50;1.80;;;;;;;;;;4917309;29;20408;-81
2023/08/27 14:46:53;;;;;;;4.85;1.88;;;;;;;;;;4914638;29;20403;-81
2023/08/27 14:49:23;;;;;;;3.55;2.10;;;;;;;;;;4915119;29;20059;-81
2023/08/27 14:51:54;;;;;;;3.33;1.42;;;;;;;;;;4916780;29;20051;-81
2023/08/27 14:54:27;;;;;;;3.85;1.55;;;;;;;;;;4916499;29;20048;-81
2023/08/27 14:56:59;;;;;;;5.35;2.15;;;;;;;;;;4916964;29;20063;-82
2023/08/27 14:59:49;;;;;;;4.38;2.00;;;;;;;;;;4916574;29;20044;-80
2023/08/27 15:02:22;;;;;;;6.03;1.95;;;;;;;;;;4917006;29;20056;-82
2023/08/27 15:04:53;;;;;;;5.22;2.42;;;;;;;;;;4916893;29;20051;-81
2023/08/27 15:07:26;;;;;;;;;;;;;;;;;;4919977;29;20056;-80
2023/08/27 15:09:58;;;;;;;3.33;1.52;;;;;;;;;;4919984;29;19923;-80
2023/08/27 15:12:30;;;;;;;6.40;2.42;;;;;;;;;;4919874;29;20510;-80
2023/08/27 15:15:01;;;;;;;6.20;1.85;;;;;;;;;;4919639;29;20048;-81
2023/08/27 15:17:33;;;;;;;4.50;2.10;;;;;;;;;;4903615;29;20052;-80
2023/08/27 15:20:06;;;;;;;5.88;2.85;;;;;;;;;;4919693;29;20055;-81